sensor_id;sensor_type;location;lat;lon;timestamp;temperature;humidity
790;DHT22;378;48.844;9.156;2023-02-05T00:01:34;2.70;99.90
790;DHT22;378;48.844;9.156;2023-02-05T00:04:01;2.70;99.90
790;DHT22;378;48.844;9.156;2023-02-05T00:06:28;2.70;99.90
790;DHT22;378;48.844;9.156;2023-02-05T00:08:55;2.70;99.90
790;DHT22;378;48.844;9.156;2023-02-05T00:11:22;2.70;99.90
790;DHT22;378;48.844;9.156;2023-02-05T00:13:49;2.60;99.90
790;DHT22;378;48.844;9.156;2023-02-05T00:16:17;2.60;99.90
790;DHT22;378;48.844;9.156;2023-02-05T00:18:46;2.60;99.90
790;DHT22;378;48.844;9.156;2023-02-05T00:21:13;2.60;99.90
790;DHT22;378;48.844;9.156;2023-02-05T00:23:41;2.70;99.90
790;DHT22;378;48.844;9.156;2023-02-05T00:26:08;2.70;99.90
790;DHT22;378;48.844;9.156;2023-02-05T00:28:38;2.60;99.90
790;DHT22;378;48.844;9.156;2023-02-05T00:31:07;2.60;99.90
790;DHT22;378;48.844;9.156;2023-02-05T00:33:35;2.60;99.90
790;DHT22;378;48.844;9.156;2023-02-05T00:36:03;2.60;99.90
790;DHT22;378;48.844;9.156;2023-02-05T00:38:31;2.60;99.90
790;DHT22;378;48.844;9.156;2023-02-05T00:40:58;2.70;99.90
790;DHT22;378;48.844;9.156;2023-02-05T00:43:25;2.70;99.90
790;DHT22;378;48.844;9.156;2023-02-05T00:45:52;2.60;99.90
790;DHT22;378;48.844;9.156;2023-02-05T00:48:19;2.50;99.90
790;DHT22;378;48.844;9.156;2023-02-05T00:50:47;2.40;99.90
790;DHT22;378;48.844;9.156;2023-02-05T00:53:15;2.40;99.90
790;DHT22;378;48.844;9.156;2023-02-05T00:55:42;2.50;99.90
790;DHT22;378;48.844;9.156;2023-02-05T00:58:09;2.40;99.90
790;DHT22;378;48.844;9.156;2023-02-05T01:00:36;2.40;99.90
790;DHT22;378;48.844;9.156;2023-02-05T01:03:03;2.30;99.90
790;DHT22;378;48.844;9.156;2023-02-05T01:05:30;2.30;99.90
790;DHT22;378;48.844;9.156;2023-02-05T01:07:56;2.40;99.90
790;DHT22;378;48.844;9.156;2023-02-05T01:10:25;2.40;99.90
790;DHT22;378;48.844;9.156;2023-02-05T01:12:51;2.30;99.90
790;DHT22;378;48.844;9.156;2023-02-05T01:15:19;2.30;99.90
790;DHT22;378;48.844;9.156;2023-02-05T01:17:46;2.30;99.90
790;DHT22;378;48.844;9.156;2023-02-05T01:20:14;2.20;99.90
790;DHT22;378;48.844;9.156;2023-02-05T01:22:41;2.30;99.90
790;DHT22;378;48.844;9.156;2023-02-05T01:25:09;2.20;99.90
790;DHT22;378;48.844;9.156;2023-02-05T01:27:37;2.20;99.90
790;DHT22;378;48.844;9.156;2023-02-05T01:30:05;2.20;99.90
790;DHT22;378;48.844;9.156;2023-02-05T01:32:32;2.20;99.90
790;DHT22;378;48.844;9.156;2023-02-05T01:35:00;2.10;99.90
790;DHT22;378;48.844;9.156;2023-02-05T01:37:26;2.10;99.90
790;DHT22;378;48.844;9.156;2023-02-05T01:39:53;2.20;99.90
790;DHT22;378;48.844;9.156;2023-02-05T01:42:22;2.10;99.90
790;DHT22;378;48.844;9.156;2023-02-05T01:45:35;2.20;99.90
790;DHT22;378;48.844;9.156;2023-02-05T01:48:07;2.20;99.90
790;DHT22;378;48.844;9.156;2023-02-05T01:50:39;2.20;99.90
790;DHT22;378;48.844;9.156;2023-02-05T01:53:09;2.20;99.90
790;DHT22;378;48.844;9.156;2023-02-05T01:55:39;2.20;99.90
790;DHT22;378;48.844;9.156;2023-02-05T01:58:09;2.20;99.90
790;DHT22;378;48.844;9.156;2023-02-05T02:00:37;2.20;99.90
790;DHT22;378;48.844;9.156;2023-02-05T02:03:05;2.20;99.90
790;DHT22;378;48.844;9.156;2023-02-05T02:05:31;2.30;99.90
790;DHT22;378;48.844;9.156;2023-02-05T02:07:58;2.30;99.90
790;DHT22;378;48.844;9.156;2023-02-05T02:10:25;2.30;99.90
790;DHT22;378;48.844;9.156;2023-02-05T02:12:53;2.30;99.90
790;DHT22;378;48.844;9.156;2023-02-05T02:15:22;2.30;99.90
790;DHT22;378;48.844;9.156;2023-02-05T02:17:57;2.30;99.90
790;DHT22;378;48.844;9.156;2023-02-05T02:20:48;2.30;99.90
790;DHT22;378;48.844;9.156;2023-02-05T02:23:25;2.30;99.90
790;DHT22;378;48.844;9.156;2023-02-05T02:26:16;2.30;99.90
790;DHT22;378;48.844;9.156;2023-02-05T02:28:54;2.20;99.90
790;DHT22;378;48.844;9.156;2023-02-05T02:31:30;2.20;99.90
790;DHT22;378;48.844;9.156;2023-02-05T02:34:01;2.10;99.90
790;DHT22;378;48.844;9.156;2023-02-05T02:36:33;2.10;99.90
790;DHT22;378;48.844;9.156;2023-02-05T02:39:07;2.10;99.90
790;DHT22;378;48.844;9.156;2023-02-05T02:41:38;2.10;99.90
790;DHT22;378;48.844;9.156;2023-02-05T02:44:12;2.10;99.90
790;DHT22;378;48.844;9.156;2023-02-05T02:46:42;2.10;99.90
790;DHT22;378;48.844;9.156;2023-02-05T02:49:15;2.10;99.90
790;DHT22;378;48.844;9.156;2023-02-05T02:51:44;2.20;99.90
790;DHT22;378;48.844;9.156;2023-02-05T02:54:14;2.20;99.90
790;DHT22;378;48.844;9.156;2023-02-05T02:56:43;2.20;99.90
790;DHT22;378;48.844;9.156;2023-02-05T02:59:14;2.20;99.90
790;DHT22;378;48.844;9.156;2023-02-05T03:01:45;2.30;99.90
790;DHT22;378;48.844;9.156;2023-02-05T03:04:18;2.30;99.90
790;DHT22;378;48.844;9.156;2023-02-05T03:06:50;2.30;99.90
790;DHT22;378;48.844;9.156;2023-02-05T03:09:23;2.30;99.90
790;DHT22;378;48.844;9.156;2023-02-05T03:11:52;2.20;99.90
790;DHT22;378;48.844;9.156;2023-02-05T03:14:20;2.20;99.90
790;DHT22;378;48.844;9.156;2023-02-05T03:16:47;2.20;99.90
790;DHT22;378;48.844;9.156;2023-02-05T03:19:14;2.20;99.90
790;DHT22;378;48.844;9.156;2023-02-05T03:21:45;2.20;99.90
790;DHT22;378;48.844;9.156;2023-02-05T03:24:13;2.20;99.90
790;DHT22;378;48.844;9.156;2023-02-05T03:26:40;2.30;99.90
790;DHT22;378;48.844;9.156;2023-02-05T03:29:09;2.20;99.90
790;DHT22;378;48.844;9.156;2023-02-05T03:31:44;2.20;99.90
790;DHT22;378;48.844;9.156;2023-02-05T03:34:21;2.30;99.90
790;DHT22;378;48.844;9.156;2023-02-05T03:37:03;2.20;99.90
790;DHT22;378;48.844;9.156;2023-02-05T03:39:41;2.20;99.90
790;DHT22;378;48.844;9.156;2023-02-05T03:42:16;2.20;99.90
790;DHT22;378;48.844;9.156;2023-02-05T03:45:14;2.20;99.90
790;DHT22;378;48.844;9.156;2023-02-05T03:47:57;2.10;99.90
790;DHT22;378;48.844;9.156;2023-02-05T03:50:30;2.00;99.90
790;DHT22;378;48.844;9.156;2023-02-05T03:53:02;2.00;99.90
790;DHT22;378;48.844;9.156;2023-02-05T03:55:37;1.90;99.90
790;DHT22;378;48.844;9.156;2023-02-05T03:58:07;1.80;99.90
790;DHT22;378;48.844;9.156;2023-02-05T04:00:36;1.70;99.90
790;DHT22;378;48.844;9.156;2023-02-05T04:03:06;1.70;99.90
790;DHT22;378;48.844;9.156;2023-02-05T04:05:33;1.60;99.90
790;DHT22;378;48.844;9.156;2023-02-05T04:08:00;1.60;99.90
790;DHT22;378;48.844;9.156;2023-02-05T04:10:27;1.60;99.90
790;DHT22;378;48.844;9.156;2023-02-05T04:12:54;1.50;99.90
790;DHT22;378;48.844;9.156;2023-02-05T04:15:21;1.50;99.90
790;DHT22;378;48.844;9.156;2023-02-05T04:17:48;1.50;99.90
790;DHT22;378;48.844;9.156;2023-02-05T04:20:16;1.40;99.90
790;DHT22;378;48.844;9.156;2023-02-05T04:22:43;1.40;99.90
790;DHT22;378;48.844;9.156;2023-02-05T04:25:10;1.30;99.90
790;DHT22;378;48.844;9.156;2023-02-05T04:27:37;1.30;99.90
790;DHT22;378;48.844;9.156;2023-02-05T04:30:04;1.20;99.90
790;DHT22;378;48.844;9.156;2023-02-05T04:32:31;1.10;99.90
790;DHT22;378;48.844;9.156;2023-02-05T04:34:58;1.10;99.90
790;DHT22;378;48.844;9.156;2023-02-05T04:37:26;1.10;99.90
790;DHT22;378;48.844;9.156;2023-02-05T04:39:53;1.00;99.90
790;DHT22;378;48.844;9.156;2023-02-05T04:42:20;1.00;99.90
790;DHT22;378;48.844;9.156;2023-02-05T04:44:47;1.00;99.90
790;DHT22;378;48.844;9.156;2023-02-05T04:47:14;1.00;99.90
790;DHT22;378;48.844;9.156;2023-02-05T04:49:40;1.10;99.90
790;DHT22;378;48.844;9.156;2023-02-05T04:52:07;1.10;99.90
790;DHT22;378;48.844;9.156;2023-02-05T04:54:37;1.10;99.90
790;DHT22;378;48.844;9.156;2023-02-05T04:57:04;1.10;99.90
790;DHT22;378;48.844;9.156;2023-02-05T04:59:30;1.20;99.90
790;DHT22;378;48.844;9.156;2023-02-05T05:01:57;1.20;99.90
790;DHT22;378;48.844;9.156;2023-02-05T05:04:24;1.30;99.90
790;DHT22;378;48.844;9.156;2023-02-05T05:06:51;1.40;99.90
790;DHT22;378;48.844;9.156;2023-02-05T05:09:19;1.40;99.90
790;DHT22;378;48.844;9.156;2023-02-05T05:11:50;1.40;99.90
790;DHT22;378;48.844;9.156;2023-02-05T05:14:17;1.50;99.90
790;DHT22;378;48.844;9.156;2023-02-05T05:16:44;1.50;99.90
790;DHT22;378;48.844;9.156;2023-02-05T05:19:11;1.50;99.90
790;DHT22;378;48.844;9.156;2023-02-05T05:21:38;1.50;99.90
790;DHT22;378;48.844;9.156;2023-02-05T05:24:05;1.60;99.90
790;DHT22;378;48.844;9.156;2023-02-05T05:26:32;1.60;99.90
790;DHT22;378;48.844;9.156;2023-02-05T05:29:00;1.70;99.90
790;DHT22;378;48.844;9.156;2023-02-05T05:31:27;1.70;99.90
790;DHT22;378;48.844;9.156;2023-02-05T05:33:53;1.70;99.90
790;DHT22;378;48.844;9.156;2023-02-05T05:36:20;1.80;99.90
790;DHT22;378;48.844;9.156;2023-02-05T05:38:47;1.80;99.90
790;DHT22;378;48.844;9.156;2023-02-05T05:41:18;1.80;99.90
790;DHT22;378;48.844;9.156;2023-02-05T05:44:05;1.80;99.90
790;DHT22;378;48.844;9.156;2023-02-05T05:46:32;1.80;99.90
790;DHT22;378;48.844;9.156;2023-02-05T05:49:00;1.90;99.90
790;DHT22;378;48.844;9.156;2023-02-05T05:51:29;1.90;99.90
790;DHT22;378;48.844;9.156;2023-02-05T05:53:57;1.90;99.90
790;DHT22;378;48.844;9.156;2023-02-05T05:56:24;1.80;99.90
790;DHT22;378;48.844;9.156;2023-02-05T05:58:50;1.80;99.90
790;DHT22;378;48.844;9.156;2023-02-05T06:01:19;1.70;99.90
790;DHT22;378;48.844;9.156;2023-02-05T06:03:47;1.70;99.90
790;DHT22;378;48.844;9.156;2023-02-05T06:06:14;1.60;99.90
790;DHT22;378;48.844;9.156;2023-02-05T06:08:41;1.60;99.90
790;DHT22;378;48.844;9.156;2023-02-05T06:11:08;1.50;99.90
790;DHT22;378;48.844;9.156;2023-02-05T06:13:34;1.50;99.90
790;DHT22;378;48.844;9.156;2023-02-05T06:16:01;1.60;99.90
790;DHT22;378;48.844;9.156;2023-02-05T06:18:29;1.60;99.90
790;DHT22;378;48.844;9.156;2023-02-05T06:20:56;1.60;99.90
790;DHT22;378;48.844;9.156;2023-02-05T06:23:23;1.60;99.90
790;DHT22;378;48.844;9.156;2023-02-05T06:25:50;1.70;99.90
790;DHT22;378;48.844;9.156;2023-02-05T06:28:17;1.70;99.90
790;DHT22;378;48.844;9.156;2023-02-05T06:30:44;1.70;99.90
790;DHT22;378;48.844;9.156;2023-02-05T06:33:11;1.70;99.90
790;DHT22;378;48.844;9.156;2023-02-05T06:35:40;1.90;99.90
790;DHT22;378;48.844;9.156;2023-02-05T06:38:07;2.00;99.90
790;DHT22;378;48.844;9.156;2023-02-05T06:40:34;2.10;99.90
790;DHT22;378;48.844;9.156;2023-02-05T06:43:01;2.10;99.90
790;DHT22;378;48.844;9.156;2023-02-05T06:45:28;2.20;99.90
790;DHT22;378;48.844;9.156;2023-02-05T06:47:55;2.10;99.90
790;DHT22;378;48.844;9.156;2023-02-05T06:50:22;2.10;99.90
790;DHT22;378;48.844;9.156;2023-02-05T06:52:51;2.10;99.90
790;DHT22;378;48.844;9.156;2023-02-05T06:55:18;2.10;99.90
790;DHT22;378;48.844;9.156;2023-02-05T06:57:45;2.20;99.90
790;DHT22;378;48.844;9.156;2023-02-05T07:00:13;2.20;99.90
790;DHT22;378;48.844;9.156;2023-02-05T07:02:40;2.10;99.90
790;DHT22;378;48.844;9.156;2023-02-05T07:05:07;2.20;99.90
790;DHT22;378;48.844;9.156;2023-02-05T07:07:34;2.20;99.90
790;DHT22;378;48.844;9.156;2023-02-05T07:10:03;2.20;99.90
790;DHT22;378;48.844;9.156;2023-02-05T07:12:31;2.20;99.90
790;DHT22;378;48.844;9.156;2023-02-05T07:14:58;2.20;99.90
790;DHT22;378;48.844;9.156;2023-02-05T07:17:24;2.30;99.90
790;DHT22;378;48.844;9.156;2023-02-05T07:19:51;2.30;99.90
790;DHT22;378;48.844;9.156;2023-02-05T07:22:18;2.30;99.90
790;DHT22;378;48.844;9.156;2023-02-05T07:24:45;2.30;99.90
790;DHT22;378;48.844;9.156;2023-02-05T07:27:13;2.30;99.90
790;DHT22;378;48.844;9.156;2023-02-05T07:29:40;2.40;99.90
790;DHT22;378;48.844;9.156;2023-02-05T07:32:07;2.50;99.90
790;DHT22;378;48.844;9.156;2023-02-05T07:34:34;2.40;99.90
790;DHT22;378;48.844;9.156;2023-02-05T07:37:01;2.50;99.90
790;DHT22;378;48.844;9.156;2023-02-05T07:39:28;2.40;99.90
790;DHT22;378;48.844;9.156;2023-02-05T07:41:55;2.40;99.90
790;DHT22;378;48.844;9.156;2023-02-05T07:44:23;2.30;99.90
790;DHT22;378;48.844;9.156;2023-02-05T07:46:50;2.40;99.90
790;DHT22;378;48.844;9.156;2023-02-05T07:49:16;2.40;99.90
790;DHT22;378;48.844;9.156;2023-02-05T07:51:43;2.40;99.90
790;DHT22;378;48.844;9.156;2023-02-05T07:54:12;2.50;99.90
790;DHT22;378;48.844;9.156;2023-02-05T07:56:40;2.50;99.90
790;DHT22;378;48.844;9.156;2023-02-05T07:59:07;2.50;99.90
790;DHT22;378;48.844;9.156;2023-02-05T08:01:35;2.60;99.90
790;DHT22;378;48.844;9.156;2023-02-05T08:04:02;2.60;99.90
790;DHT22;378;48.844;9.156;2023-02-05T08:06:29;2.60;99.90
790;DHT22;378;48.844;9.156;2023-02-05T08:08:56;2.60;99.90
790;DHT22;378;48.844;9.156;2023-02-05T08:11:23;2.60;99.90
790;DHT22;378;48.844;9.156;2023-02-05T08:13:50;2.60;99.90
790;DHT22;378;48.844;9.156;2023-02-05T08:16:17;2.60;99.90
790;DHT22;378;48.844;9.156;2023-02-05T08:18:48;2.70;99.90
790;DHT22;378;48.844;9.156;2023-02-05T08:21:16;2.80;99.90
790;DHT22;378;48.844;9.156;2023-02-05T08:23:43;2.80;99.90
790;DHT22;378;48.844;9.156;2023-02-05T08:26:10;2.70;99.90
790;DHT22;378;48.844;9.156;2023-02-05T08:28:39;2.80;99.90
790;DHT22;378;48.844;9.156;2023-02-05T08:31:10;2.90;99.90
790;DHT22;378;48.844;9.156;2023-02-05T08:33:38;2.90;99.90
790;DHT22;378;48.844;9.156;2023-02-05T08:36:08;3.00;99.90
790;DHT22;378;48.844;9.156;2023-02-05T08:38:36;3.10;99.90
790;DHT22;378;48.844;9.156;2023-02-05T08:41:04;3.20;99.90
790;DHT22;378;48.844;9.156;2023-02-05T08:43:38;3.30;99.90
790;DHT22;378;48.844;9.156;2023-02-05T08:46:06;3.30;99.90
790;DHT22;378;48.844;9.156;2023-02-05T08:48:33;3.30;99.90
790;DHT22;378;48.844;9.156;2023-02-05T08:51:00;3.30;99.90
790;DHT22;378;48.844;9.156;2023-02-05T08:53:28;3.30;99.90
790;DHT22;378;48.844;9.156;2023-02-05T08:55:59;3.40;99.90
790;DHT22;378;48.844;9.156;2023-02-05T08:58:28;3.50;99.90
790;DHT22;378;48.844;9.156;2023-02-05T09:00:59;3.50;99.90
790;DHT22;378;48.844;9.156;2023-02-05T09:03:27;3.50;99.90
790;DHT22;378;48.844;9.156;2023-02-05T09:05:55;3.50;99.90
790;DHT22;378;48.844;9.156;2023-02-05T09:08:21;3.60;99.90
790;DHT22;378;48.844;9.156;2023-02-05T09:10:50;3.60;99.90
790;DHT22;378;48.844;9.156;2023-02-05T09:13:26;3.60;99.90
790;DHT22;378;48.844;9.156;2023-02-05T09:15:54;3.60;99.90
790;DHT22;378;48.844;9.156;2023-02-05T09:18:20;3.50;99.90
790;DHT22;378;48.844;9.156;2023-02-05T09:20:49;3.50;99.90
790;DHT22;378;48.844;9.156;2023-02-05T09:23:17;3.40;99.90
790;DHT22;378;48.844;9.156;2023-02-05T09:25:44;3.30;99.90
790;DHT22;378;48.844;9.156;2023-02-05T09:28:13;3.20;99.90
790;DHT22;378;48.844;9.156;2023-02-05T09:30:42;3.10;99.90
790;DHT22;378;48.844;9.156;2023-02-05T09:33:10;3.00;99.90
790;DHT22;378;48.844;9.156;2023-02-05T09:35:37;2.90;99.90
790;DHT22;378;48.844;9.156;2023-02-05T09:38:04;2.90;99.90
790;DHT22;378;48.844;9.156;2023-02-05T09:40:33;2.90;99.90
790;DHT22;378;48.844;9.156;2023-02-05T09:43:06;2.90;99.90
790;DHT22;378;48.844;9.156;2023-02-05T09:45:50;2.90;99.90
790;DHT22;378;48.844;9.156;2023-02-05T09:48:46;2.90;99.90
790;DHT22;378;48.844;9.156;2023-02-05T09:51:22;2.90;99.90
790;DHT22;378;48.844;9.156;2023-02-05T09:53:56;2.90;99.90
790;DHT22;378;48.844;9.156;2023-02-05T09:56:27;3.00;99.90
790;DHT22;378;48.844;9.156;2023-02-05T09:58:55;3.00;99.90
790;DHT22;378;48.844;9.156;2023-02-05T10:01:33;3.10;99.90
790;DHT22;378;48.844;9.156;2023-02-05T10:04:02;3.10;99.90
790;DHT22;378;48.844;9.156;2023-02-05T10:06:52;3.10;99.90
790;DHT22;378;48.844;9.156;2023-02-05T10:13:12;3.20;99.90
790;DHT22;378;48.844;9.156;2023-02-05T10:15:55;3.10;99.90
790;DHT22;378;48.844;9.156;2023-02-05T10:18:37;3.20;99.90
790;DHT22;378;48.844;9.156;2023-02-05T10:21:15;3.30;99.90
790;DHT22;378;48.844;9.156;2023-02-05T10:23:58;3.40;99.90
790;DHT22;378;48.844;9.156;2023-02-05T10:26:31;3.40;99.90
790;DHT22;378;48.844;9.156;2023-02-05T10:29:22;3.40;99.90
790;DHT22;378;48.844;9.156;2023-02-05T10:32:05;3.50;99.90
790;DHT22;378;48.844;9.156;2023-02-05T10:34:52;3.50;99.90
790;DHT22;378;48.844;9.156;2023-02-05T10:37:36;3.50;99.90
790;DHT22;378;48.844;9.156;2023-02-05T10:40:12;3.50;99.90
790;DHT22;378;48.844;9.156;2023-02-05T10:42:42;3.50;99.90
790;DHT22;378;48.844;9.156;2023-02-05T10:45:14;3.50;99.90
790;DHT22;378;48.844;9.156;2023-02-05T10:48:14;3.50;99.90
790;DHT22;378;48.844;9.156;2023-02-05T10:50:54;3.40;99.90
790;DHT22;378;48.844;9.156;2023-02-05T10:53:24;3.30;99.90
790;DHT22;378;48.844;9.156;2023-02-05T10:55:51;3.20;99.90
790;DHT22;378;48.844;9.156;2023-02-05T10:58:30;3.30;99.90
790;DHT22;378;48.844;9.156;2023-02-05T11:01:00;3.30;99.90
790;DHT22;378;48.844;9.156;2023-02-05T11:03:28;3.40;99.90
790;DHT22;378;48.844;9.156;2023-02-05T11:05:56;3.50;99.90
790;DHT22;378;48.844;9.156;2023-02-05T11:08:31;3.50;99.90
790;DHT22;378;48.844;9.156;2023-02-05T11:10:58;3.60;99.90
790;DHT22;378;48.844;9.156;2023-02-05T11:13:26;3.60;99.90
790;DHT22;378;48.844;9.156;2023-02-05T11:15:56;3.70;99.90
790;DHT22;378;48.844;9.156;2023-02-05T11:18:25;3.60;99.90
790;DHT22;378;48.844;9.156;2023-02-05T11:20:59;3.60;99.90
790;DHT22;378;48.844;9.156;2023-02-05T11:23:28;3.70;99.90
790;DHT22;378;48.844;9.156;2023-02-05T11:25:57;3.60;99.90
790;DHT22;378;48.844;9.156;2023-02-05T11:28:27;3.60;99.90
790;DHT22;378;48.844;9.156;2023-02-05T11:30:55;3.70;99.90
790;DHT22;378;48.844;9.156;2023-02-05T11:33:27;3.80;99.90
790;DHT22;378;48.844;9.156;2023-02-05T11:35:58;3.90;99.90
790;DHT22;378;48.844;9.156;2023-02-05T11:38:36;4.10;99.90
790;DHT22;378;48.844;9.156;2023-02-05T11:41:09;4.20;99.90
790;DHT22;378;48.844;9.156;2023-02-05T11:43:39;4.40;99.90
790;DHT22;378;48.844;9.156;2023-02-05T11:46:08;4.40;99.90
790;DHT22;378;48.844;9.156;2023-02-05T11:48:40;4.50;99.90
790;DHT22;378;48.844;9.156;2023-02-05T11:51:12;4.60;99.90
790;DHT22;378;48.844;9.156;2023-02-05T11:53:47;4.60;99.90
790;DHT22;378;48.844;9.156;2023-02-05T11:56:19;4.60;99.90
790;DHT22;378;48.844;9.156;2023-02-05T11:58:57;4.50;99.90
790;DHT22;378;48.844;9.156;2023-02-05T12:01:25;4.30;99.90
790;DHT22;378;48.844;9.156;2023-02-05T12:03:57;4.30;99.90
790;DHT22;378;48.844;9.156;2023-02-05T12:06:31;4.20;99.90
790;DHT22;378;48.844;9.156;2023-02-05T12:08:59;4.20;99.90
790;DHT22;378;48.844;9.156;2023-02-05T12:11:44;4.20;99.90
790;DHT22;378;48.844;9.156;2023-02-05T12:14:41;4.10;99.90
790;DHT22;378;48.844;9.156;2023-02-05T12:17:25;4.10;99.90
790;DHT22;378;48.844;9.156;2023-02-05T12:19:57;4.20;99.90
790;DHT22;378;48.844;9.156;2023-02-05T12:22:51;4.20;99.90
790;DHT22;378;48.844;9.156;2023-02-05T12:25:25;4.20;99.90
790;DHT22;378;48.844;9.156;2023-02-05T12:28:14;4.20;99.90
790;DHT22;378;48.844;9.156;2023-02-05T12:30:52;4.20;99.90
790;DHT22;378;48.844;9.156;2023-02-05T12:33:49;4.20;99.90
790;DHT22;378;48.844;9.156;2023-02-05T12:36:30;4.20;99.90
790;DHT22;378;48.844;9.156;2023-02-05T12:39:08;4.30;99.90
790;DHT22;378;48.844;9.156;2023-02-05T12:41:44;4.30;99.90
790;DHT22;378;48.844;9.156;2023-02-05T12:44:24;4.40;99.90
790;DHT22;378;48.844;9.156;2023-02-05T12:47:04;4.40;99.90
790;DHT22;378;48.844;9.156;2023-02-05T12:49:46;4.40;99.90
790;DHT22;378;48.844;9.156;2023-02-05T12:52:30;4.40;99.90
790;DHT22;378;48.844;9.156;2023-02-05T12:55:14;4.40;99.90
790;DHT22;378;48.844;9.156;2023-02-05T12:57:45;4.50;99.90
790;DHT22;378;48.844;9.156;2023-02-05T13:00:17;4.50;99.90
790;DHT22;378;48.844;9.156;2023-02-05T13:02:52;4.50;99.90
790;DHT22;378;48.844;9.156;2023-02-05T13:05:24;4.50;99.90
790;DHT22;378;48.844;9.156;2023-02-05T13:07:58;4.50;99.90
790;DHT22;378;48.844;9.156;2023-02-05T13:10:32;4.60;99.90
790;DHT22;378;48.844;9.156;2023-02-05T13:13:02;4.60;99.90
790;DHT22;378;48.844;9.156;2023-02-05T13:15:34;4.50;99.90
790;DHT22;378;48.844;9.156;2023-02-05T13:18:08;4.50;99.90
790;DHT22;378;48.844;9.156;2023-02-05T13:20:39;4.50;99.90
790;DHT22;378;48.844;9.156;2023-02-05T13:23:25;4.50;99.90
790;DHT22;378;48.844;9.156;2023-02-05T13:26:14;4.50;99.90
790;DHT22;378;48.844;9.156;2023-02-05T13:29:02;4.40;99.90
790;DHT22;378;48.844;9.156;2023-02-05T13:31:36;4.40;99.90
790;DHT22;378;48.844;9.156;2023-02-05T13:34:05;4.40;99.90
790;DHT22;378;48.844;9.156;2023-02-05T13:40:14;4.40;99.90
790;DHT22;378;48.844;9.156;2023-02-05T13:43:05;4.30;99.90
790;DHT22;378;48.844;9.156;2023-02-05T13:45:58;4.30;99.90
790;DHT22;378;48.844;9.156;2023-02-05T13:51:40;4.00;99.90
790;DHT22;378;48.844;9.156;2023-02-05T13:57:37;3.80;99.90
790;DHT22;378;48.844;9.156;2023-02-05T14:00:17;3.80;99.90
790;DHT22;378;48.844;9.156;2023-02-05T14:02:46;3.80;99.90
790;DHT22;378;48.844;9.156;2023-02-05T14:05:15;3.80;99.90
790;DHT22;378;48.844;9.156;2023-02-05T14:07:44;3.80;99.90
790;DHT22;378;48.844;9.156;2023-02-05T14:10:24;3.70;99.90
790;DHT22;378;48.844;9.156;2023-02-05T14:12:52;3.60;99.90
790;DHT22;378;48.844;9.156;2023-02-05T14:15:37;3.60;99.90
790;DHT22;378;48.844;9.156;2023-02-05T14:18:04;3.50;99.90
790;DHT22;378;48.844;9.156;2023-02-05T14:20:34;3.40;99.90
790;DHT22;378;48.844;9.156;2023-02-05T14:23:02;3.30;99.90
790;DHT22;378;48.844;9.156;2023-02-05T14:26:05;3.20;99.90
790;DHT22;378;48.844;9.156;2023-02-05T14:28:45;3.10;99.90
790;DHT22;378;48.844;9.156;2023-02-05T14:31:46;3.10;99.90
790;DHT22;378;48.844;9.156;2023-02-05T14:37:31;3.10;99.90
790;DHT22;378;48.844;9.156;2023-02-05T14:40:20;3.20;99.90
790;DHT22;378;48.844;9.156;2023-02-05T14:42:47;3.10;99.90
790;DHT22;378;48.844;9.156;2023-02-05T14:45:16;3.10;99.90
790;DHT22;378;48.844;9.156;2023-02-05T14:47:44;3.20;99.90
790;DHT22;378;48.844;9.156;2023-02-05T14:50:19;3.20;99.90
790;DHT22;378;48.844;9.156;2023-02-05T14:52:49;3.30;99.90
790;DHT22;378;48.844;9.156;2023-02-05T14:55:20;3.30;99.90
790;DHT22;378;48.844;9.156;2023-02-05T14:57:50;3.30;99.90
790;DHT22;378;48.844;9.156;2023-02-05T15:00:25;3.30;99.90
790;DHT22;378;48.844;9.156;2023-02-05T15:03:23;3.20;99.90
790;DHT22;378;48.844;9.156;2023-02-05T15:05:57;3.30;99.90
790;DHT22;378;48.844;9.156;2023-02-05T15:08:37;3.20;99.90
790;DHT22;378;48.844;9.156;2023-02-05T15:11:12;3.30;99.90
790;DHT22;378;48.844;9.156;2023-02-05T15:13:41;3.20;99.90
790;DHT22;378;48.844;9.156;2023-02-05T15:16:28;3.20;99.90
790;DHT22;378;48.844;9.156;2023-02-05T15:18:58;3.20;99.90
790;DHT22;378;48.844;9.156;2023-02-05T15:21:27;3.20;99.90
790;DHT22;378;48.844;9.156;2023-02-05T15:23:59;3.30;99.90
790;DHT22;378;48.844;9.156;2023-02-05T15:26:33;3.30;99.90
790;DHT22;378;48.844;9.156;2023-02-05T15:29:05;3.40;99.90
790;DHT22;378;48.844;9.156;2023-02-05T15:31:36;3.40;99.90
790;DHT22;378;48.844;9.156;2023-02-05T15:34:26;3.40;99.90
790;DHT22;378;48.844;9.156;2023-02-05T15:36:57;3.30;99.90
790;DHT22;378;48.844;9.156;2023-02-05T15:39:30;3.30;99.90
790;DHT22;378;48.844;9.156;2023-02-05T15:42:00;3.30;99.90
790;DHT22;378;48.844;9.156;2023-02-05T15:44:29;3.30;99.90
790;DHT22;378;48.844;9.156;2023-02-05T15:46:59;3.30;99.90
790;DHT22;378;48.844;9.156;2023-02-05T15:49:34;3.30;99.90
790;DHT22;378;48.844;9.156;2023-02-05T15:52:01;3.30;99.90
790;DHT22;378;48.844;9.156;2023-02-05T15:54:31;3.20;99.90
790;DHT22;378;48.844;9.156;2023-02-05T15:57:01;3.20;99.90
790;DHT22;378;48.844;9.156;2023-02-05T15:59:29;3.20;99.90
790;DHT22;378;48.844;9.156;2023-02-05T16:02:06;3.20;99.90
790;DHT22;378;48.844;9.156;2023-02-05T16:04:41;3.20;99.90
790;DHT22;378;48.844;9.156;2023-02-05T16:07:19;3.20;99.90
790;DHT22;378;48.844;9.156;2023-02-05T16:09:49;3.20;99.90
790;DHT22;378;48.844;9.156;2023-02-05T16:12:16;3.20;99.90
790;DHT22;378;48.844;9.156;2023-02-05T16:14:43;3.20;99.90
790;DHT22;378;48.844;9.156;2023-02-05T16:17:13;3.10;99.90
790;DHT22;378;48.844;9.156;2023-02-05T16:19:46;3.10;99.90
790;DHT22;378;48.844;9.156;2023-02-05T16:22:36;3.00;99.90
790;DHT22;378;48.844;9.156;2023-02-05T16:25:21;3.10;99.90
790;DHT22;378;48.844;9.156;2023-02-05T16:27:53;3.10;99.90
790;DHT22;378;48.844;9.156;2023-02-05T16:30:28;3.00;99.90
790;DHT22;378;48.844;9.156;2023-02-05T16:32:58;3.10;99.90
790;DHT22;378;48.844;9.156;2023-02-05T16:35:30;3.00;99.90
790;DHT22;378;48.844;9.156;2023-02-05T16:37:59;3.10;99.90
790;DHT22;378;48.844;9.156;2023-02-05T16:40:31;3.10;99.90
790;DHT22;378;48.844;9.156;2023-02-05T16:43:17;3.10;99.90
790;DHT22;378;48.844;9.156;2023-02-05T16:46:18;3.20;99.90
790;DHT22;378;48.844;9.156;2023-02-05T16:48:48;3.20;99.90
790;DHT22;378;48.844;9.156;2023-02-05T16:54:29;3.20;99.90
790;DHT22;378;48.844;9.156;2023-02-05T16:57:01;3.20;99.90
790;DHT22;378;48.844;9.156;2023-02-05T16:59:32;3.20;99.90
790;DHT22;378;48.844;9.156;2023-02-05T17:02:00;3.20;99.90
790;DHT22;378;48.844;9.156;2023-02-05T17:04:30;3.20;99.90
790;DHT22;378;48.844;9.156;2023-02-05T17:07:00;3.20;99.90
790;DHT22;378;48.844;9.156;2023-02-05T17:09:33;3.30;99.90
790;DHT22;378;48.844;9.156;2023-02-05T17:12:35;3.20;99.90
790;DHT22;378;48.844;9.156;2023-02-05T17:15:31;3.20;99.90
790;DHT22;378;48.844;9.156;2023-02-05T17:17:59;3.20;99.90
790;DHT22;378;48.844;9.156;2023-02-05T17:20:31;3.20;99.90
790;DHT22;378;48.844;9.156;2023-02-05T17:23:15;3.30;99.90
790;DHT22;378;48.844;9.156;2023-02-05T17:25:49;3.30;99.90
790;DHT22;378;48.844;9.156;2023-02-05T17:28:19;3.30;99.90
790;DHT22;378;48.844;9.156;2023-02-05T17:30:48;3.20;99.90
790;DHT22;378;48.844;9.156;2023-02-05T17:33:17;3.20;99.90
790;DHT22;378;48.844;9.156;2023-02-05T17:35:48;3.30;99.90
790;DHT22;378;48.844;9.156;2023-02-05T17:38:16;3.30;99.90
790;DHT22;378;48.844;9.156;2023-02-05T17:40:45;3.20;99.90
790;DHT22;378;48.844;9.156;2023-02-05T17:43:12;3.30;99.90